Time;durP1;ratioP1;P1;durP2;ratioP2;P2;SDS_P1;SDS_P2;PMS_P1;PMS_P2;Temp;Humidity;BMP_temperature;BMP_pressure;BME280_temperature;BME280_humidity;BME280_pressure;Samples;Min_cycle;Max_cycle;Signal;HPM_P1;HPM_P2
2022/04/03 00:01:47;;;;;;;1.77;1.67;;;0.10;98.70;-0.80;100063;;;;583293;242;24072;-80
2022/04/03 00:04:11;;;;;;;1.90;1.40;;;0.20;98.80;-0.70;100062;;;;583037;242;24099;-84
2022/04/03 00:06:39;;;;;;;1.47;1.37;;;0.30;98.90;-0.60;100060;;;;584794;241;24022;-78
2022/04/03 00:09:06;;;;;;;1.20;1.10;;;0.40;99.10;-0.60;100051;;;;584583;242;24051;-78
2022/04/03 00:11:34;;;;;;;1.57;1.37;;;0.40;98.90;-0.60;100052;;;;584227;242;24011;-77
2022/04/03 00:14:03;;;;;;;2.03;1.70;;;0.40;98.60;-0.60;100061;;;;584174;242;24086;-79
2022/04/03 00:16:32;;;;;;;1.70;1.60;;;0.40;98.50;-0.70;100056;;;;583870;241;24054;-79
2022/04/03 00:19:01;;;;;;;2.43;1.50;;;0.40;98.60;-0.70;100057;;;;576679;245;24070;-77
2022/04/03 00:21:26;;;;;;;1.73;1.63;;;0.40;98.50;-0.70;100054;;;;588547;241;24045;-79
2022/04/03 00:23:54;;;;;;;1.87;1.50;;;0.40;98.40;-0.70;100053;;;;590710;241;24031;-78
2022/04/03 00:26:23;;;;;;;2.50;1.63;;;0.30;98.30;-0.70;100049;;;;590579;241;24024;-78
2022/04/03 00:28:51;;;;;;;1.97;1.40;;;0.30;98.10;-0.80;100044;;;;590291;241;24044;-79
2022/04/03 00:31:22;;;;;;;3.60;1.80;;;0.30;98.10;-0.80;100038;;;;584456;241;24027;-78
2022/04/03 00:33:47;;;;;;;1.67;1.43;;;0.20;97.80;-0.90;100040;;;;588298;241;24039;-78
2022/04/03 00:36:15;;;;;;;1.63;1.53;;;0.20;97.90;-1.00;100048;;;;588664;241;24029;-78
2022/04/03 00:38:45;;;;;;;1.40;1.30;;;0.10;97.80;-1.00;100045;;;;590548;241;24047;-79
2022/04/03 00:41:12;;;;;;;2.57;1.47;;;0.10;98.00;-1.00;100037;;;;590388;241;24093;-80
2022/04/03 00:43:40;;;;;;;1.70;1.60;;;0.00;97.90;-1.00;100057;;;;588321;241;24354;-78
2022/04/03 00:46:07;;;;;;;1.57;1.47;;;0.10;97.90;-1.00;100039;;;;590294;241;24013;-77
2022/04/03 00:48:39;;;;;;;3.03;1.70;;;0.10;97.60;-1.00;100040;;;;588365;241;24069;-78
2022/04/03 00:51:04;;;;;;;1.30;1.20;;;0.10;97.60;-0.90;100046;;;;587990;241;24074;-78
2022/04/03 00:53:32;;;;;;;1.40;1.30;;;0.10;97.60;-0.90;100032;;;;589939;241;24116;-79
2022/04/03 00:56:00;;;;;;;1.35;1.25;;;0.20;97.80;-0.80;100041;;;;584936;241;34847;-77
2022/04/03 00:58:28;;;;;;;1.00;0.80;;;0.20;98.20;-0.80;100034;;;;590299;241;24020;-77
2022/04/03 01:00:56;;;;;;;2.20;0.90;;;0.30;98.20;-0.80;100037;;;;590353;241;24028;-78
2022/04/03 01:03:24;;;;;;;2.17;1.00;;;0.30;98.20;-0.80;100045;;;;590496;241;24072;-78
2022/04/03 01:05:52;;;;;;;2.47;1.47;;;0.20;98.30;-0.80;100034;;;;588338;241;24126;-80
2022/04/03 01:08:20;;;;;;;1.93;1.33;;;0.20;98.50;-0.80;100029;;;;590176;241;24020;-78
2022/04/03 01:10:48;;;;;;;1.90;1.60;;;0.20;98.70;-0.80;100029;;;;590331;241;24031;-78
2022/04/03 01:13:16;;;;;;;3.50;1.60;;;0.30;98.90;-0.70;100039;;;;590018;242;24094;-78
2022/04/03 01:15:51;;;;;;;1.70;1.60;;;0.40;99.20;-0.60;100039;;;;588886;242;24066;-78
2022/04/03 01:18:19;;;;;;;1.97;1.80;;;0.50;99.40;-0.60;100045;;;;577544;245;24050;-78
2022/04/03 01:20:47;;;;;;;1.80;1.70;;;0.50;99.40;-0.50;100046;;;;577501;245;24088;-78
2022/04/03 01:23:15;;;;;;;1.87;1.77;;;0.50;99.30;-0.50;100030;;;;577264;245;25102;-78
2022/04/03 01:25:43;;;;;;;2.10;1.80;;;0.60;99.40;-0.40;100030;;;;577192;245;24077;-78
2022/04/03 01:28:12;;;;;;;2.40;2.20;;;0.60;99.30;-0.50;100031;;;;576977;245;24061;-78
2022/04/03 01:30:40;;;;;;;2.50;2.00;;;0.60;99.30;-0.50;100040;;;;576934;245;24071;-78
2022/04/03 01:33:08;;;;;;;2.13;1.90;;;0.60;99.20;-0.50;100030;;;;576994;245;24065;-80
2022/04/03 01:35:35;;;;;;;2.37;1.90;;;0.60;98.90;-0.50;100031;;;;576854;245;24069;-79
2022/04/03 01:38:03;;;;;;;2.97;1.90;;;0.60;98.70;-0.40;100019;;;;576571;245;24078;-78
2022/04/03 01:40:34;;;;;;;2.20;1.70;;;0.60;98.60;-0.40;100027;;;;576339;245;24059;-79
2022/04/03 01:42:59;;;;;;;1.87;1.73;;;0.60;98.40;-0.40;100035;;;;576321;245;24075;-78
2022/04/03 01:45:27;;;;;;;2.03;1.93;;;0.60;98.30;-0.40;100038;;;;576373;245;24054;-78
2022/04/03 01:47:56;;;;;;;3.17;1.80;;;0.70;98.60;-0.40;100030;;;;571306;245;35122;-78
2022/04/03 01:50:25;;;;;;;1.27;0.90;;;0.60;98.60;-0.40;100030;;;;576357;245;24057;-79
2022/04/03 01:52:52;;;;;;;1.50;1.27;;;0.60;98.40;-0.40;100032;;;;576125;245;24060;-80
2022/04/03 01:55:20;;;;;;;2.03;1.53;;;0.60;98.40;-0.40;100031;;;;576186;245;24152;-79
2022/04/03 01:57:48;;;;;;;1.40;1.30;;;0.70;98.40;-0.40;100035;;;;576577;245;24062;-78
2022/04/03 02:00:17;;;;;;;1.73;1.37;;;0.70;98.40;-0.40;100034;;;;576525;245;24042;-78
2022/04/03 02:02:45;;;;;;;3.27;1.63;;;0.70;98.30;-0.40;100042;;;;576491;245;24108;-80
2022/04/03 02:05:13;;;;;;;1.03;1.00;;;0.70;98.30;-0.30;100037;;;;576554;245;24064;-81
2022/04/03 02:07:41;;;;;;;1.40;1.40;;;0.70;98.20;-0.30;100042;;;;576442;245;24048;-78
2022/04/03 02:10:12;;;;;;;2.23;1.53;;;0.70;98.10;-0.30;100035;;;;576464;245;24039;-85
2022/04/03 02:12:37;;;;;;;1.90;0.90;;;0.70;98.10;-0.40;100041;;;;576360;245;24062;-77
2022/04/03 02:15:05;;;;;;;1.73;1.47;;;0.70;98.00;-0.40;100035;;;;576479;245;24091;-78
2022/04/03 02:17:33;;;;;;;1.87;1.43;;;0.60;97.90;-0.40;100038;;;;579607;245;24088;-77
2022/04/03 02:20:01;;;;;;;2.27;1.50;;;0.60;98.00;-0.50;100032;;;;576533;245;24108;-78
2022/04/03 02:22:29;;;;;;;1.33;1.30;;;0.60;98.00;-0.50;100037;;;;576619;245;24061;-81
2022/04/03 02:24:57;;;;;;;3.50;1.57;;;0.60;98.10;-0.50;100035;;;;576571;245;24077;-84
2022/04/03 02:27:25;;;;;;;2.27;1.93;;;0.50;98.10;-0.60;100021;;;;576564;245;24060;-81
2022/04/03 02:29:53;;;;;;;2.30;2.00;;;0.50;98.30;-0.60;100031;;;;577696;245;24062;-79
2022/04/03 02:32:21;;;;;;;3.40;2.40;;;0.50;98.50;-0.60;100036;;;;577550;245;24051;-79
2022/04/03 02:34:48;;;;;;;3.47;3.17;;;0.50;98.80;-0.60;100033;;;;577275;245;24135;-79
2022/04/03 02:37:16;;;;;;;3.73;2.90;;;0.50;99.00;-0.60;100039;;;;577147;245;24108;-79
2022/04/03 02:39:45;;;;;;;3.33;3.03;;;0.50;99.20;-0.70;100039;;;;576557;245;24094;-78
2022/04/03 02:42:13;;;;;;;2.73;2.53;;;0.30;99.80;-0.70;100044;;;;576574;245;24060;-78
2022/04/03 02:44:41;;;;;;;2.53;2.33;;;0.30;99.40;-0.70;100038;;;;576600;245;24084;-78
2022/04/03 02:47:09;;;;;;;2.53;2.30;;;0.30;99.50;-0.70;100041;;;;576273;245;24053;-77
2022/04/03 02:49:37;;;;;;;2.00;1.90;;;0.30;99.70;-0.70;100035;;;;576395;245;24073;-78
2022/04/03 02:52:05;;;;;;;2.67;2.10;;;0.30;99.70;-0.70;100034;;;;576267;245;24073;-79
2022/04/03 02:54:35;;;;;;;4.53;1.90;;;0.40;99.70;-0.70;100025;;;;576448;245;24049;-78
2022/04/03 02:57:00;;;;;;;5.00;2.57;;;0.40;99.60;-0.70;100027;;;;575941;245;24068;-78
2022/04/03 02:59:28;;;;;;;6.03;3.07;;;0.40;99.60;-0.80;100019;;;;572279;245;24074;-78
2022/04/03 03:01:56;;;;;;;7.27;3.13;;;0.30;99.70;-0.90;100026;;;;576688;245;24160;-85
2022/04/03 03:04:25;;;;;;;5.23;3.37;;;0.00;99.90;-1.10;100025;;;;576663;245;24047;-77
2022/04/03 03:06:53;;;;;;;4.03;2.80;;;0.00;99.90;-1.30;100026;;;;576388;245;24085;-78
2022/04/03 03:09:21;;;;;;;3.53;2.70;;;-0.20;99.90;-1.30;100026;;;;576504;245;24076;-78
2022/04/03 03:11:49;;;;;;;2.73;2.20;;;-0.30;99.90;-1.40;100028;;;;576510;245;24122;-78
2022/04/03 03:14:16;;;;;;;3.67;2.00;;;-0.30;99.90;-1.40;100022;;;;568828;246;35101;-79
2022/04/03 03:16:44;;;;;;;3.50;1.73;;;-0.30;99.90;-1.50;100017;;;;576428;245;24037;-80
2022/04/03 03:19:13;;;;;;;1.70;1.60;;;-0.40;99.90;-1.50;100022;;;;573836;246;24103;-81
2022/04/03 03:21:41;;;;;;;2.50;2.30;;;-0.50;99.90;-1.60;100025;;;;576500;245;24067;-80
2022/04/03 03:24:12;;;;;;;4.40;2.40;;;-0.50;99.90;-1.60;100027;;;;576449;245;24064;-81
2022/04/03 03:26:40;;;;;;;3.30;2.53;;;-0.50;99.90;-1.50;100025;;;;573566;246;24127;-86
2022/04/03 03:29:05;;;;;;;4.67;3.37;;;-0.50;99.90;-1.50;100016;;;;572919;247;25163;-79
2022/04/03 03:31:33;;;;;;;7.07;3.30;;;-0.40;99.90;-1.50;100025;;;;573625;245;24086;-79
2022/04/03 03:34:01;;;;;;;5.57;3.30;;;-0.40;99.90;-1.50;100019;;;;573769;246;24081;-82
2022/04/03 03:36:29;;;;;;;13.33;4.50;;;-0.40;99.90;-1.50;100023;;;;576496;245;24075;-80
2022/04/03 03:38:57;;;;;;;8.93;4.23;;;-0.40;99.90;-1.60;100020;;;;573784;246;24084;-82
2022/04/03 03:41:24;;;;;;;4.80;4.27;;;-0.50;99.90;-1.50;100020;;;;571682;246;24102;-77
2022/04/03 03:43:52;;;;;;;3.67;3.37;;;-0.40;99.90;-1.60;100019;;;;577180;245;24038;-78
2022/04/03 03:46:20;;;;;;;2.90;2.70;;;-0.50;99.90;-1.60;100021;;;;574117;246;24062;-78
2022/04/03 03:48:48;;;;;;;6.07;2.67;;;-0.50;99.90;-1.60;100026;;;;576920;245;24081;-79
2022/04/03 03:51:16;;;;;;;2.73;2.53;;;-0.50;99.90;-1.70;100022;;;;574236;246;24108;-79
2022/04/03 03:53:44;;;;;;;9.13;3.03;;;-0.60;99.90;-1.80;100014;;;;577017;245;24069;-79
2022/04/03 03:56:12;;;;;;;4.77;3.30;;;-0.60;99.90;-1.80;100015;;;;574317;246;24053;-83
2022/04/03 03:58:40;;;;;;;4.40;4.00;;;-0.70;99.90;-1.90;100017;;;;576853;245;24072;-83
2022/04/03 04:01:08;;;;;;;4.37;3.97;;;-0.80;99.90;-1.90;100019;;;;573781;246;24099;-83
2022/04/03 04:03:36;;;;;;;5.30;4.77;;;-0.80;99.90;-1.90;100017;;;;576317;245;24067;-84
2022/04/03 04:06:03;;;;;;;6.70;4.43;;;-0.80;99.90;-1.90;100022;;;;573770;246;24054;-83
2022/04/03 04:08:31;;;;;;;4.63;3.43;;;-0.80;99.90;-1.90;100021;;;;576339;245;24080;-85
2022/04/03 04:10:59;;;;;;;6.00;3.10;;;-0.80;99.90;-1.90;100009;;;;574045;246;24053;-86
2022/04/03 04:13:28;;;;;;;5.10;4.00;;;-0.80;99.90;-1.90;100019;;;;576376;245;24059;-83
2022/04/03 04:15:56;;;;;;;3.77;3.37;;;-0.80;99.90;-1.90;100016;;;;576196;245;24131;-82
2022/04/03 04:18:24;;;;;;;5.40;3.27;;;-0.80;99.90;-2.00;100020;;;;573546;246;24072;-79
2022/04/03 04:20:53;;;;;;;5.00;3.70;;;-0.90;99.90;-2.00;100018;;;;576055;245;24100;-79
2022/04/03 04:23:20;;;;;;;5.37;3.97;;;-0.90;99.90;-2.10;100013;;;;573373;245;24071;-81
2022/04/03 04:25:48;;;;;;;6.73;3.47;;;-1.00;99.90;-2.10;100016;;;;576998;247;24114;-82
2022/04/03 04:28:15;;;;;;;3.60;3.10;;;-1.00;99.90;-2.20;100007;;;;583836;242;24029;-84
2022/04/03 04:30:43;;;;;;;4.67;3.23;;;-1.10;99.90;-2.30;100018;;;;576117;245;24071;-87
2022/04/03 04:33:14;;;;;;;5.33;3.93;;;-1.20;99.90;-2.30;100019;;;;573405;246;24045;-83
2022/04/03 04:35:39;;;;;;;5.37;4.00;;;-1.20;99.90;-2.40;100015;;;;575665;246;24084;-84
2022/04/03 04:38:07;;;;;;;6.30;3.90;;;-1.30;99.90;-2.40;99998;;;;577509;245;24091;-83
2022/04/03 04:40:35;;;;;;;6.15;3.80;;;-1.30;99.90;-2.40;100029;;;;579212;242;34940;-84
2022/04/03 04:43:03;;;;;;;2.33;2.13;;;-1.30;99.90;-2.30;100019;;;;576062;245;24050;-83
2022/04/03 04:45:31;;;;;;;3.93;3.17;;;-1.20;99.90;-2.20;100020;;;;573505;246;24088;-81
2022/04/03 04:48:01;;;;;;;4.93;3.53;;;-1.10;99.90;-2.00;100015;;;;576441;245;24115;-84
2022/04/03 04:50:32;;;;;;;7.37;3.57;;;-0.90;99.90;-1.90;100026;;;;573464;246;24108;-79
2022/04/03 04:53:01;;;;;;;5.10;3.77;;;-0.80;99.90;-1.70;100023;;;;571030;245;24082;-79
2022/04/03 04:55:29;;;;;;;5.87;3.67;;;-0.60;99.90;-1.50;100023;;;;586594;241;24030;-82
2022/04/03 04:57:54;;;;;;;4.07;3.67;;;-0.30;99.90;-1.40;100023;;;;588869;241;24079;-78
2022/04/03 05:00:23;;;;;;;4.30;3.87;;;-0.20;99.90;-1.30;100030;;;;595574;241;24027;-78
2022/04/03 05:02:54;;;;;;;4.77;3.77;;;-0.30;99.90;-1.40;100029;;;;588266;241;24026;-80
2022/04/03 05:05:19;;;;;;;5.23;3.37;;;-0.30;99.90;-1.40;100031;;;;588443;241;24027;-78
2022/04/03 05:07:47;;;;;;;5.50;3.50;;;-0.30;99.90;-1.50;100027;;;;588443;241;24062;-79
2022/04/03 05:10:15;;;;;;;4.73;3.87;;;-0.40;99.90;-1.60;100026;;;;588297;241;24095;-77
2022/04/03 05:12:43;;;;;;;4.77;3.40;;;-0.50;99.90;-1.70;100038;;;;588230;241;24020;-78
2022/04/03 05:15:11;;;;;;;5.23;4.20;;;-0.60;99.90;-1.70;100036;;;;588091;241;24040;-78
2022/04/03 05:17:41;;;;;;;4.60;3.77;;;-0.60;99.90;-1.60;100044;;;;588306;241;24039;-78
2022/04/03 05:20:13;;;;;;;6.20;3.67;;;-0.60;99.90;-1.50;100032;;;;588174;241;24070;-79
2022/04/03 05:22:37;;;;;;;5.77;3.83;;;-0.50;99.90;-1.20;100043;;;;585158;241;24023;-78
2022/04/03 05:25:05;;;;;;;5.70;4.10;;;-0.20;99.90;-0.80;100049;;;;588226;241;24039;-79
2022/04/03 05:27:33;;;;;;;4.73;3.40;;;0.10;99.90;-0.40;100048;;;;588640;241;24047;-82
2022/04/03 05:30:03;;;;;;;3.83;2.70;;;0.50;99.90;1.10;100061;;;;590875;241;24044;-78
2022/04/03 05:32:29;;;;;;;3.77;2.73;;;1.70;99.90;2.20;100065;;;;582261;242;24082;-78
2022/04/03 05:34:57;;;;;;;3.47;1.93;;;2.80;99.90;2.30;100073;;;;576187;246;24072;-78
2022/04/03 05:37:28;;;;;;;3.43;2.10;;;3.20;99.90;2.10;100075;;;;584040;242;24021;-84
2022/04/03 05:39:53;;;;;;;5.67;2.53;;;3.10;99.90;1.70;100070;;;;579839;245;24077;-81
2022/04/03 05:42:20;;;;;;;2.17;1.83;;;2.90;99.90;1.40;100075;;;;584858;242;24043;-79
2022/04/03 05:44:48;;;;;;;3.63;2.17;;;2.60;99.90;1.20;100068;;;;583679;242;25083;-85
2022/04/03 05:47:18;;;;;;;5.03;1.83;;;2.40;99.90;1.10;100067;;;;592810;242;24011;-82
2022/04/03 05:49:46;;;;;;;2.83;1.93;;;2.30;99.90;1.10;100069;;;;583543;242;24018;-80
2022/04/03 05:52:13;;;;;;;2.33;2.13;;;2.20;99.90;1.10;100068;;;;583709;242;28251;-81
2022/04/03 05:54:41;;;;;;;6.23;2.33;;;2.10;99.90;1.20;100075;;;;581580;242;24055;-83
2022/04/03 05:57:10;;;;;;;5.67;2.40;;;2.20;99.90;1.30;100068;;;;583767;242;24004;-79
2022/04/03 05:59:37;;;;;;;2.93;2.00;;;2.30;99.90;1.60;100077;;;;583564;242;24039;-81
2022/04/03 06:02:05;;;;;;;2.17;1.97;;;2.50;99.90;1.80;100077;;;;581620;242;24019;-79
2022/04/03 06:04:33;;;;;;;2.83;1.97;;;2.70;99.90;2.00;100084;;;;584522;241;24002;-78
2022/04/03 06:07:01;;;;;;;1.87;1.77;;;2.90;99.90;2.30;100079;;;;557007;254;24193;-75
2022/04/03 06:09:29;;;;;;;5.03;2.87;;;3.20;99.90;2.90;100078;;;;567187;248;24100;-77
2022/04/03 06:11:57;;;;;;;4.47;2.70;;;3.60;99.90;3.50;100078;;;;567064;249;24062;-76
2022/04/03 06:14:28;;;;;;;2.73;1.90;;;4.30;99.90;4.50;100088;;;;566816;249;24094;-76
2022/04/03 06:16:52;;;;;;;5.23;3.60;;;5.10;99.60;4.90;100091;;;;566515;249;24090;-82
2022/04/03 06:19:23;;;;;;;4.73;3.47;;;5.70;96.80;4.70;100094;;;;567467;249;24096;-79
2022/04/03 06:21:49;;;;;;;4.00;2.70;;;5.50;94.10;4.40;100094;;;;575558;243;24094;-84
2022/04/03 06:24:17;;;;;;;2.43;2.07;;;5.50;94.00;4.10;100091;;;;567071;249;24149;-81
2022/04/03 06:26:45;;;;;;;2.20;1.73;;;5.20;93.90;3.80;100086;;;;567106;249;24094;-79
2022/04/03 06:29:13;;;;;;;2.47;2.27;;;4.90;93.80;3.50;100087;;;;567272;249;24091;-80
2022/04/03 06:31:41;;;;;;;6.90;3.03;;;4.60;93.90;3.30;100081;;;;566973;249;24165;-79
2022/04/03 06:34:09;;;;;;;3.93;2.63;;;4.40;94.50;3.30;100092;;;;567114;249;24091;-77
2022/04/03 06:36:36;;;;;;;3.50;2.40;;;4.30;95.00;3.40;100080;;;;567211;248;24071;-80
2022/04/03 06:39:04;;;;;;;4.17;2.80;;;4.30;95.10;3.50;100083;;;;567301;249;24084;-78
2022/04/03 06:41:32;;;;;;;3.30;2.67;;;4.40;95.20;3.70;100081;;;;567096;248;24124;-80
2022/04/03 06:44:00;;;;;;;8.43;3.70;;;4.60;95.20;3.90;100092;;;;567171;249;24090;-78
2022/04/03 06:46:28;;;;;;;5.40;3.03;;;4.80;95.00;4.10;100084;;;;566668;249;24094;-78
2022/04/03 06:48:57;;;;;;;5.57;3.27;;;5.00;94.40;4.40;100085;;;;572250;242;24106;-78
2022/04/03 06:51:25;;;;;;;5.47;3.53;;;5.60;93.90;4.80;100093;;;;583828;242;24015;-78
2022/04/03 06:53:53;;;;;;;4.57;2.73;;;5.60;93.60;5.30;100092;;;;583780;242;24080;-78
2022/04/03 06:56:20;;;;;;;2.90;2.20;;;6.10;92.70;5.80;100092;;;;583613;242;24060;-81
2022/04/03 06:58:48;;;;;;;5.33;3.37;;;6.60;91.40;6.30;100091;;;;584086;242;24005;-85
2022/04/03 07:01:16;;;;;;;6.10;3.27;;;7.00;90.00;6.40;100089;;;;584087;242;24064;-79
2022/04/03 07:03:46;;;;;;;6.47;2.60;;;7.20;87.70;6.30;100096;;;;584337;242;24032;-84
2022/04/03 07:06:12;;;;;;;4.70;2.47;;;7.30;86.00;6.10;100098;;;;575786;242;24082;-84
2022/04/03 07:08:41;;;;;;;2.93;2.43;;;7.10;85.30;5.80;100089;;;;573523;242;24017;-84
2022/04/03 07:11:08;;;;;;;2.73;1.90;;;6.90;85.20;5.60;100097;;;;580877;242;24193;-83
2022/04/03 07:13:36;;;;;;;4.03;2.57;;;6.70;85.60;5.60;100101;;;;570613;248;24098;-78
2022/04/03 07:16:07;;;;;;;4.53;2.73;;;6.50;86.10;5.50;100091;;;;588668;241;24116;-82
2022/04/03 07:18:34;;;;;;;3.90;2.50;;;6.50;86.50;5.30;100101;;;;567559;249;24113;-86
2022/04/03 07:20:59;;;;;;;7.97;4.00;;;6.30;86.90;5.20;100103;;;;588186;241;24024;-84
2022/04/03 07:23:27;;;;;;;3.07;2.17;;;6.10;87.10;5.00;100104;;;;588556;241;24050;-84
2022/04/03 07:25:55;;;;;;;5.30;2.83;;;6.00;87.80;4.80;100109;;;;588381;241;24048;-86
2022/04/03 07:28:23;;;;;;;3.67;2.33;;;5.80;87.30;4.80;100102;;;;588412;241;24062;-83
2022/04/03 07:30:51;;;;;;;3.27;2.03;;;5.70;88.50;4.90;100107;;;;587642;241;24077;-82
2022/04/03 07:33:20;;;;;;;5.83;2.93;;;5.80;89.10;5.10;100107;;;;587991;241;24031;-78
2022/04/03 07:35:47;;;;;;;1.63;1.50;;;5.90;88.80;5.30;100108;;;;587708;241;24023;-81
2022/04/03 07:38:15;;;;;;;3.33;1.80;;;6.30;87.90;5.50;100107;;;;589905;241;24027;-84
2022/04/03 07:40:44;;;;;;;2.57;1.90;;;6.30;87.40;5.80;100110;;;;588381;241;24137;-83
2022/04/03 07:43:16;;;;;;;3.93;1.87;;;6.80;85.30;6.00;100106;;;;588596;241;24014;-80
2022/04/03 07:45:40;;;;;;;5.63;2.20;;;6.80;85.30;6.50;100115;;;;587826;241;24026;-82
2022/04/03 07:48:08;;;;;;;1.47;1.37;;;7.30;84.90;7.20;100122;;;;587723;241;24041;-81
2022/04/03 07:50:36;;;;;;;2.77;1.50;;;7.90;83.30;7.40;100120;;;;589845;240;24077;-79
2022/04/03 07:53:04;;;;;;;4.50;1.90;;;8.20;80.50;7.20;100120;;;;587677;242;24070;-79
2022/04/03 07:55:32;;;;;;;3.50;2.17;;;8.20;78.90;7.10;100121;;;;587258;242;24035;-81
2022/04/03 07:57:59;;;;;;;9.03;4.63;;;8.10;79.30;7.30;100116;;;;587132;242;24091;-79
2022/04/03 08:00:27;;;;;;;5.93;3.37;;;8.20;79.40;7.60;100122;;;;586982;242;24049;-80
2022/04/03 08:02:55;;;;;;;11.23;4.73;;;8.40;78.20;7.90;100109;;;;587068;242;24041;-77
2022/04/03 08:05:24;;;;;;;4.33;2.60;;;9.20;75.10;8.40;100116;;;;587445;242;25097;-81
2022/04/03 08:07:52;;;;;;;3.63;1.40;;;9.10;75.00;8.70;100110;;;;587367;242;24089;-79
2022/04/03 08:10:20;;;;;;;1.90;1.70;;;9.50;72.40;9.00;100115;;;;587409;242;25106;-83
2022/04/03 08:12:48;;;;;;;2.17;1.40;;;9.80;69.30;9.20;100117;;;;587424;242;24012;-78
2022/04/03 08:15:16;;;;;;;2.57;1.60;;;10.20;67.10;9.40;100117;;;;587268;242;24024;-79
2022/04/03 08:17:44;;;;;;;12.13;3.97;;;10.20;67.00;9.70;100118;;;;587307;242;24067;-80
2022/04/03 08:20:15;;;;;;;11.97;5.00;;;10.50;65.60;9.70;100114;;;;589155;242;24033;-79
2022/04/03 08:22:40;;;;;;;2.87;2.40;;;10.60;64.80;9.80;100123;;;;587125;242;24061;-80
2022/04/03 08:25:08;;;;;;;2.17;1.97;;;10.70;64.10;9.90;100112;;;;587250;242;24109;-79
2022/04/03 08:27:45;;;;;;;16.23;6.63;;;10.70;63.60;10.00;100111;;;;588462;241;24088;-80
2022/04/03 08:30:13;;;;;;;13.80;6.43;;;10.80;62.30;10.20;100109;;;;588234;241;24196;-80
2022/04/03 08:32:41;;;;;;;13.20;6.50;;;10.90;62.30;10.70;100122;;;;588021;241;24071;-78
2022/04/03 08:35:09;;;;;;;7.47;3.23;;;11.40;61.30;11.10;100114;;;;587967;241;24039;-77
2022/04/03 08:37:37;;;;;;;1.93;1.43;;;11.80;58.00;11.60;100118;;;;587746;241;24012;-83
2022/04/03 08:40:04;;;;;;;4.60;2.97;;;12.20;56.90;12.20;100120;;;;587855;241;24044;-80
2022/04/03 08:42:32;;;;;;;4.30;2.77;;;12.80;55.10;13.20;100116;;;;587839;241;24081;-81
2022/04/03 08:45:00;;;;;;;6.80;3.93;;;13.70;52.30;14.20;100122;;;;587671;241;24049;-80
2022/04/03 08:47:28;;;;;;;7.50;4.73;;;14.80;49.50;14.40;100123;;;;589550;241;24027;-82
2022/04/03 08:50:04;;;;;;;4.70;1.47;;;15.10;46.40;14.20;100128;;;;594504;237;24079;-77
2022/04/03 08:52:28;;;;;;;2.13;1.03;;;15.10;46.40;14.00;100123;;;;587172;241;24057;-82
2022/04/03 08:54:56;;;;;;;2.57;1.67;;;15.00;46.30;14.10;100122;;;;594585;241;24053;-81
2022/04/03 08:57:24;;;;;;;3.20;1.30;;;14.90;46.80;14.40;100123;;;;577192;244;24074;-82
2022/04/03 08:59:52;;;;;;;3.10;1.87;;;15.20;46.90;15.20;100129;;;;576864;245;24095;-79
2022/04/03 09:02:20;;;;;;;1.90;1.70;;;15.70;46.50;16.40;100133;;;;576833;245;24088;-81
2022/04/03 09:04:48;;;;;;;1.73;1.40;;;16.70;44.90;19.20;100138;;;;581975;242;24039;-78
2022/04/03 09:07:19;;;;;;;1.40;1.30;;;19.30;42.90;21.90;100130;;;;572215;247;23100;-80
2022/04/03 09:09:47;;;;;;;1.57;1.47;;;22.10;38.60;23.90;100144;;;;571598;247;23142;-79
2022/04/03 09:12:17;;;;;;;5.67;1.83;;;24.50;35.50;25.90;100139;;;;571566;247;24115;-79
2022/04/03 09:14:54;;;;;;;6.93;2.53;;;26.50;31.90;26.90;100149;;;;580436;246;23146;-80
2022/04/03 09:17:34;;;;;;;1.73;1.50;;;27.80;30.50;27.80;100143;;;;579632;246;23123;-81
2022/04/03 09:20:08;;;;;;;1.85;1.62;;;28.80;29.50;28.50;100132;;;;571390;247;23127;-86
2022/04/03 09:22:36;;;;;;;1.00;1.00;;;29.80;28.40;28.10;100139;;;;572217;247;23130;-80
2022/04/03 09:25:06;;;;;;;1.85;1.75;;;29.70;27.90;28.00;100143;;;;572503;247;24109;-78
2022/04/03 09:27:37;;;;;;;1.37;1.20;;;29.60;27.80;27.00;100134;;;;581388;247;23121;-78
2022/04/03 09:30:05;;;;;;;1.67;1.40;;;29.00;27.70;24.90;100130;;;;572672;247;23127;-81
2022/04/03 09:32:33;;;;;;;1.95;1.70;;;27.50;27.90;23.00;100122;;;;582647;246;23140;-79
2022/04/03 09:35:01;;;;;;;5.70;3.60;;;24.00;29.70;21.70;100124;;;;580823;247;24256;-79
2022/04/03 09:37:29;;;;;;;3.83;2.23;;;23.90;29.60;20.50;100116;;;;580927;246;23107;-77
2022/04/03 09:39:57;;;;;;;2.60;1.90;;;22.60;30.70;19.50;100117;;;;581679;246;24064;-78
2022/04/03 09:42:26;;;;;;;3.20;2.33;;;20.10;33.40;18.30;100115;;;;581264;247;24163;-77
2022/04/03 09:44:55;;;;;;;2.73;2.43;;;18.40;35.00;16.60;100113;;;;580748;247;23098;-78
2022/04/03 09:47:33;;;;;;;1.80;1.70;;;18.30;34.90;15.50;100110;;;;580867;247;24080;-78
2022/04/03 09:50:02;;;;;;;4.03;2.63;;;17.00;37.40;14.60;100111;;;;567678;247;24086;-78
2022/04/03 09:52:48;;;;;;;7.97;3.43;;;15.80;38.20;13.70;100105;;;;579854;246;24105;-78
2022/04/03 09:55:17;;;;;;;14.03;6.40;;;14.50;41.00;13.90;100103;;;;573645;247;24141;-77
2022/04/03 09:57:45;;;;;;;8.23;3.97;;;14.50;40.90;15.80;100107;;;;571490;247;24207;-78
2022/04/03 10:00:14;;;;;;;12.37;6.23;;;18.00;38.80;17.70;100101;;;;571859;247;24080;-80
2022/04/03 10:02:47;;;;;;;11.83;6.67;;;17.90;38.60;19.70;100094;;;;570823;247;24128;-78
2022/04/03 10:05:15;;;;;;;13.17;7.83;;;20.10;36.10;21.70;100100;;;;572282;247;24122;-77
2022/04/03 10:07:43;;;;;;;2.03;1.83;;;22.40;33.70;21.30;100103;;;;572455;247;24070;-77
2022/04/03 10:10:14;;;;;;;2.80;2.10;;;22.80;31.80;19.80;100098;;;;572347;247;24080;-79
2022/04/03 10:12:39;;;;;;;3.90;2.90;;;21.80;32.00;18.40;100093;;;;573332;244;24171;-78
2022/04/03 10:15:07;;;;;;;2.23;1.37;;;20.40;33.30;16.90;100090;;;;579858;247;24196;-78
2022/04/03 10:17:36;;;;;;;2.97;2.40;;;17.50;37.30;15.70;100090;;;;579858;247;24073;-79
2022/04/03 10:20:05;;;;;;;10.53;5.87;;;16.20;38.30;14.70;100095;;;;579897;247;24099;-79
2022/04/03 10:22:33;;;;;;;6.77;3.83;;;15.30;39.40;14.00;100093;;;;581126;247;24188;-79
2022/04/03 10:25:02;;;;;;;4.03;1.70;;;14.40;40.60;13.30;100081;;;;572035;247;24149;-79
2022/04/03 10:27:37;;;;;;;5.60;2.97;;;14.40;40.50;12.60;100070;;;;571946;247;24182;-80
2022/04/03 10:30:04;;;;;;;3.17;1.63;;;13.10;43.40;12.10;100062;;;;572065;247;24086;-84
2022/04/03 10:32:33;;;;;;;2.50;2.17;;;13.00;44.00;12.10;100057;;;;581086;246;25159;-81
2022/04/03 10:35:08;;;;;;;1.20;1.10;;;12.90;44.20;12.00;100049;;;;571953;247;24088;-84
2022/04/03 10:37:37;;;;;;;0.97;0.97;;;12.70;44.40;11.70;100064;;;;571975;247;24109;-82
2022/04/03 10:40:07;;;;;;;2.73;1.30;;;12.50;43.40;11.50;100052;;;;571901;247;24135;-79
2022/04/03 10:42:48;;;;;;;2.30;1.30;;;12.10;44.30;11.40;100060;;;;580856;246;24172;-86
2022/04/03 10:45:16;;;;;;;1.27;1.13;;;12.10;44.30;11.10;100050;;;;569354;247;24095;-85
2022/04/03 10:47:44;;;;;;;1.40;1.30;;;11.80;44.50;11.00;100042;;;;579904;247;24089;-78
2022/04/03 10:50:15;;;;;;;3.23;0.93;;;11.70;45.40;11.00;100041;;;;580431;246;24073;-84
2022/04/03 10:52:42;;;;;;;1.00;1.00;;;11.70;45.80;10.90;100050;;;;572335;247;24140;-78
2022/04/03 10:55:15;;;;;;;1.77;1.20;;;11.70;45.80;10.80;100044;;;;572428;247;24109;-81
2022/04/03 10:57:42;;;;;;;1.23;1.00;;;11.50;45.50;10.80;100028;;;;573361;247;24080;-80
2022/04/03 11:00:16;;;;;;;1.43;1.27;;;11.50;45.90;11.00;100031;;;;572086;247;24104;-78
2022/04/03 11:02:43;;;;;;;3.53;1.67;;;11.70;46.00;11.20;100032;;;;573134;246;24095;-82
2022/04/03 11:05:27;;;;;;;1.83;1.30;;;11.80;46.20;11.10;100041;;;;572443;247;24110;-87
2022/04/03 11:08:00;;;;;;;3.47;1.63;;;11.90;46.40;10.80;100034;;;;572466;247;24097;-82
2022/04/03 11:10:53;;;;;;;3.43;1.57;;;11.60;46.70;10.60;100028;;;;570906;247;25122;-81
2022/04/03 11:13:30;;;;;;;5.57;1.33;;;11.40;47.40;10.60;100042;;;;581261;246;24166;-79
2022/04/03 11:16:01;;;;;;;1.53;1.43;;;11.30;48.30;10.50;100034;;;;573080;247;24150;-79
2022/04/03 11:18:39;;;;;;;2.53;1.57;;;11.10;48.10;10.30;100028;;;;567283;247;24108;-79
2022/04/03 11:21:33;;;;;;;1.97;1.40;;;11.00;48.00;10.10;100027;;;;572118;247;24078;-81